Terminal Aerodrome Forecast
Issued by NWS Jackson, KY

Home | Current Version | Previous Version | Text Only | Print | Product List | Glossary On
Versions: 1 2 3 4 5 6 7 8 9 10 11 12 13 14 15 16
000
FTUS43 KJKL 221144
TAFJKL
TAF
KJKL 221144Z 2212/2312 VRB03KT 1/4SM FG VV001 WS020/20030KT
      TEMPO 2212/2213 3SM SHRA BKN010
     FM221500 VRB05KT P6SM SHRA BKN003 OVC008
     FM221700 VRB05KT 6SM BR VCSH SCT003 OVC015
     FM230600 VRB03KT P6SM BKN050=

USA.gov is the U.S. government's official web portal to all federal, state and local government web resources and services.